Time;durP1;ratioP1;P1;durP2;ratioP2;P2;SDS_P1;SDS_P2;PMS_P1;PMS_P2;Temp;Humidity;BMP_temperature;BMP_pressure;BME280_temperature;BME280_humidity;BME280_pressure;Samples;Min_cycle;Max_cycle;Signal;HPM_P1;HPM_P2
2021/04/08 00:01:50;;;;;;;0.70;0.50;;;;;;;;;;5077714;28;20245;-49
2021/04/08 00:04:16;;;;;;;0.82;0.70;;;;;;;;;;5089871;28;20552;-48
2021/04/08 00:06:42;;;;;;;0.90;0.77;;;;;;;;;;5092712;28;20185;-48
2021/04/08 00:09:08;;;;;;;0.60;0.60;;;;;;;;;;5095184;28;20197;-48
2021/04/08 00:11:34;;;;;;;1.23;0.63;;;;;;;;;;5094370;28;20585;-48
2021/04/08 00:14:00;;;;;;;0.70;0.70;;;;;;;;;;5094529;28;20186;-48
2021/04/08 00:16:26;;;;;;;0.82;0.45;;;;;;;;;;5095079;28;20180;-48
2021/04/08 00:18:52;;;;;;;0.57;0.52;;;;;;;;;;5094855;28;20181;-48
2021/04/08 00:21:18;;;;;;;1.25;0.75;;;;;;;;;;5094536;28;20230;-48
2021/04/08 00:23:44;;;;;;;0.70;0.70;;;;;;;;;;5094711;28;20269;-48
2021/04/08 00:26:10;;;;;;;1.10;0.60;;;;;;;;;;5094742;28;20170;-48
2021/04/08 00:28:36;;;;;;;1.52;0.70;;;;;;;;;;5094783;28;20299;-48
2021/04/08 00:31:02;;;;;;;0.70;0.60;;;;;;;;;;5094264;28;20268;-48
2021/04/08 00:33:28;;;;;;;0.80;0.68;;;;;;;;;;5094921;28;20443;-48
2021/04/08 00:35:54;;;;;;;0.50;0.40;;;;;;;;;;5094638;28;20188;-48
2021/04/08 00:38:20;;;;;;;1.73;0.90;;;;;;;;;;5094617;28;20205;-50
2021/04/08 00:40:46;;;;;;;0.68;0.57;;;;;;;;;;5094419;28;20184;-48
2021/04/08 00:43:12;;;;;;;0.60;0.50;;;;;;;;;;5094749;28;20178;-48
2021/04/08 00:45:38;;;;;;;1.05;0.70;;;;;;;;;;5094158;28;20177;-48
2021/04/08 00:48:04;;;;;;;0.88;0.63;;;;;;;;;;5095076;28;20266;-49
2021/04/08 00:50:31;;;;;;;0.73;0.50;;;;;;;;;;5094050;28;20182;-49
2021/04/08 00:52:58;;;;;;;1.27;0.60;;;;;;;;;;5093981;28;20181;-48
2021/04/08 00:55:29;;;;;;;0.85;0.60;;;;;;;;;;5088276;28;20185;-48
2021/04/08 00:57:56;;;;;;;0.65;0.60;;;;;;;;;;5093840;28;20210;-49
2021/04/08 01:00:24;;;;;;;0.85;0.55;;;;;;;;;;5091484;28;20425;-48
2021/04/08 01:02:50;;;;;;;0.70;0.65;;;;;;;;;;5080054;28;20177;-48
2021/04/08 01:05:16;;;;;;;0.95;0.60;;;;;;;;;;5094358;28;20166;-48
2021/04/08 01:07:42;;;;;;;1.20;0.55;;;;;;;;;;5095131;28;20169;-48
2021/04/08 01:10:09;;;;;;;0.60;0.38;;;;;;;;;;5093108;28;20186;-48
2021/04/08 01:12:35;;;;;;;0.88;0.60;;;;;;;;;;5083941;28;20220;-48
2021/04/08 01:15:04;;;;;;;0.75;0.50;;;;;;;;;;5094117;28;20557;-48
2021/04/08 01:17:42;;;;;;;1.10;0.60;;;;;;;;;;5094710;28;20189;-48
2021/04/08 01:20:21;;;;;;;0.93;0.60;;;;;;;;;;5093452;28;20595;-48
2021/04/08 01:23:05;;;;;;;0.60;0.47;;;;;;;;;;5094766;28;20248;-48
2021/04/08 01:25:44;;;;;;;0.90;0.50;;;;;;;;;;5094163;28;20459;-48
2021/04/08 01:28:16;;;;;;;0.60;0.60;;;;;;;;;;5093960;28;20190;-48
2021/04/08 01:30:46;;;;;;;2.13;0.60;;;;;;;;;;5093439;28;20182;-48
2021/04/08 01:33:20;;;;;;;0.73;0.60;;;;;;;;;;5094531;28;20173;-48
2021/04/08 01:35:48;;;;;;;0.85;0.60;;;;;;;;;;5093468;28;20193;-48
2021/04/08 01:38:23;;;;;;;0.63;0.60;;;;;;;;;;5094013;28;20201;-48
2021/04/08 01:40:49;;;;;;;0.50;0.50;;;;;;;;;;5086130;28;20202;-48
2021/04/08 01:43:17;;;;;;;0.95;0.50;;;;;;;;;;5093888;28;20189;-48
2021/04/08 01:45:46;;;;;;;0.98;0.70;;;;;;;;;;5088898;28;20197;-48
2021/04/08 01:48:13;;;;;;;0.47;0.40;;;;;;;;;;5082894;28;20186;-48
2021/04/08 01:50:40;;;;;;;1.33;0.68;;;;;;;;;;5085995;28;20201;-48
2021/04/08 01:53:06;;;;;;;0.98;0.70;;;;;;;;;;5093840;28;20181;-48
2021/04/08 01:55:33;;;;;;;0.57;0.40;;;;;;;;;;5093443;28;20208;-49
2021/04/08 01:58:00;;;;;;;0.65;0.57;;;;;;;;;;5093394;28;20209;-48
2021/04/08 02:00:27;;;;;;;0.95;0.50;;;;;;;;;;5093193;28;20178;-48
2021/04/08 02:02:54;;;;;;;0.40;0.40;;;;;;;;;;5093493;28;20226;-48
2021/04/08 02:05:21;;;;;;;0.60;0.60;;;;;;;;;;5095728;28;20185;-48
2021/04/08 02:07:48;;;;;;;0.75;0.60;;;;;;;;;;5097648;28;20556;-48
2021/04/08 02:10:15;;;;;;;1.42;0.55;;;;;;;;;;5088140;28;20557;-48
2021/04/08 02:12:44;;;;;;;0.68;0.60;;;;;;;;;;5096490;28;20252;-48
2021/04/08 02:15:11;;;;;;;0.40;0.40;;;;;;;;;;5097253;28;20174;-49
2021/04/08 02:17:38;;;;;;;0.60;0.40;;;;;;;;;;5092032;28;20206;-48
2021/04/08 02:20:14;;;;;;;1.13;0.40;;;;;;;;;;5097007;28;20174;-48
2021/04/08 02:22:41;;;;;;;0.57;0.40;;;;;;;;;;5097342;28;20174;-48
2021/04/08 02:25:08;;;;;;;1.15;0.50;;;;;;;;;;5096170;28;20257;-48
2021/04/08 02:27:35;;;;;;;1.10;0.45;;;;;;;;;;5092319;28;20206;-48
2021/04/08 02:30:01;;;;;;;0.52;0.52;;;;;;;;;;5090019;28;20258;-48
2021/04/08 02:32:27;;;;;;;1.70;0.70;;;;;;;;;;5097218;28;20205;-48
2021/04/08 02:34:53;;;;;;;0.82;0.52;;;;;;;;;;5088209;28;20186;-48
2021/04/08 02:37:19;;;;;;;0.80;0.47;;;;;;;;;;5091611;28;20205;-48
2021/04/08 02:39:46;;;;;;;0.60;0.45;;;;;;;;;;5096516;28;20166;-48
2021/04/08 02:42:12;;;;;;;0.55;0.50;;;;;;;;;;5096411;28;20178;-48
2021/04/08 02:44:38;;;;;;;0.50;0.50;;;;;;;;;;5096682;28;20214;-48
2021/04/08 02:47:04;;;;;;;0.50;0.40;;;;;;;;;;5096874;28;20568;-48
2021/04/08 02:49:30;;;;;;;0.77;0.50;;;;;;;;;;5097038;28;20208;-48
2021/04/08 02:51:58;;;;;;;1.20;0.55;;;;;;;;;;5096398;28;20185;-48
2021/04/08 02:54:35;;;;;;;0.82;0.55;;;;;;;;;;5096104;28;20260;-48
2021/04/08 02:57:02;;;;;;;1.48;0.57;;;;;;;;;;5088568;28;20197;-48
2021/04/08 02:59:37;;;;;;;0.60;0.40;;;;;;;;;;5087571;28;20182;-48
2021/04/08 03:02:06;;;;;;;0.40;0.40;;;;;;;;;;5087218;28;20200;-48
2021/04/08 03:04:35;;;;;;;0.40;0.30;;;;;;;;;;5095373;28;20219;-48
2021/04/08 03:07:02;;;;;;;0.50;0.50;;;;;;;;;;5084067;28;20175;-48
2021/04/08 03:09:36;;;;;;;1.20;0.60;;;;;;;;;;5076368;28;20178;-48
2021/04/08 03:12:04;;;;;;;0.70;0.50;;;;;;;;;;5081254;28;20176;-48
2021/04/08 03:14:32;;;;;;;1.20;0.68;;;;;;;;;;5085411;28;20189;-48
2021/04/08 03:16:59;;;;;;;0.75;0.40;;;;;;;;;;5083905;28;20203;-48
2021/04/08 03:19:26;;;;;;;0.68;0.40;;;;;;;;;;5076009;28;20224;-48
2021/04/08 03:21:53;;;;;;;0.35;0.30;;;;;;;;;;5096088;28;20482;-48
2021/04/08 03:24:19;;;;;;;0.85;0.50;;;;;;;;;;5095630;28;20189;-48
2021/04/08 03:26:46;;;;;;;0.32;0.32;;;;;;;;;;5088722;28;20178;-48
2021/04/08 03:29:13;;;;;;;0.98;0.45;;;;;;;;;;5096118;28;20178;-48
2021/04/08 03:31:43;;;;;;;1.13;0.65;;;;;;;;;;5095775;28;20181;-48
2021/04/08 03:34:09;;;;;;;0.38;0.38;;;;;;;;;;5095929;28;20169;-48
2021/04/08 03:36:36;;;;;;;0.68;0.40;;;;;;;;;;5094494;28;20898;-48
2021/04/08 03:39:02;;;;;;;0.85;0.50;;;;;;;;;;5096206;28;20158;-48
2021/04/08 03:41:28;;;;;;;1.38;0.50;;;;;;;;;;5095567;28;20214;-48
2021/04/08 03:43:54;;;;;;;0.70;0.40;;;;;;;;;;5094654;28;20177;-49
2021/04/08 03:46:20;;;;;;;1.30;0.57;;;;;;;;;;5094314;28;20188;-48
2021/04/08 03:48:47;;;;;;;0.57;0.45;;;;;;;;;;5096048;28;20540;-48
2021/04/08 03:51:14;;;;;;;0.80;0.43;;;;;;;;;;5094905;28;20227;-48
2021/04/08 03:53:40;;;;;;;0.80;0.40;;;;;;;;;;5095685;28;20196;-48
2021/04/08 03:56:08;;;;;;;0.52;0.32;;;;;;;;;;5085641;28;20199;-48
2021/04/08 03:58:34;;;;;;;0.47;0.40;;;;;;;;;;5095212;28;20209;-48
2021/04/08 04:01:00;;;;;;;1.75;0.60;;;;;;;;;;5095045;28;20273;-49
2021/04/08 04:03:27;;;;;;;0.80;0.50;;;;;;;;;;5095686;28;20207;-48
2021/04/08 04:05:53;;;;;;;0.43;0.38;;;;;;;;;;5094387;28;20178;-48
2021/04/08 04:08:19;;;;;;;0.50;0.50;;;;;;;;;;5095725;28;20213;-48
2021/04/08 04:10:46;;;;;;;0.68;0.50;;;;;;;;;;5094919;28;20190;-48
2021/04/08 04:13:13;;;;;;;0.40;0.40;;;;;;;;;;5094936;28;20243;-48
2021/04/08 04:15:40;;;;;;;1.90;0.63;;;;;;;;;;5081599;28;20186;-48
2021/04/08 04:18:07;;;;;;;0.68;0.40;;;;;;;;;;5081898;28;20205;-49
2021/04/08 04:20:33;;;;;;;0.43;0.40;;;;;;;;;;5077709;28;20537;-48
2021/04/08 04:22:59;;;;;;;0.57;0.47;;;;;;;;;;5095044;28;20197;-48
2021/04/08 04:25:25;;;;;;;1.02;0.55;;;;;;;;;;5094060;28;20236;-49
2021/04/08 04:27:51;;;;;;;1.05;0.80;;;;;;;;;;5094360;28;20178;-48
2021/04/08 04:30:17;;;;;;;0.40;0.40;;;;;;;;;;5094943;28;20186;-48
2021/04/08 04:32:44;;;;;;;0.40;0.40;;;;;;;;;;5095444;28;20166;-48
2021/04/08 04:35:10;;;;;;;1.55;0.60;;;;;;;;;;5092873;28;20591;-48
2021/04/08 04:37:36;;;;;;;0.82;0.40;;;;;;;;;;5094725;28;20229;-48
2021/04/08 04:40:03;;;;;;;0.47;0.47;;;;;;;;;;5094543;28;20201;-48
2021/04/08 04:42:29;;;;;;;0.38;0.38;;;;;;;;;;5094116;28;20186;-48
2021/04/08 04:44:55;;;;;;;1.05;0.50;;;;;;;;;;5088420;28;20181;-48
2021/04/08 04:47:22;;;;;;;1.02;0.45;;;;;;;;;;5095101;28;20196;-48
2021/04/08 04:49:48;;;;;;;0.52;0.40;;;;;;;;;;5090697;28;20612;-48
2021/04/08 04:52:15;;;;;;;1.60;0.70;;;;;;;;;;5094760;28;20185;-49
2021/04/08 04:54:41;;;;;;;1.58;0.80;;;;;;;;;;5090205;28;20564;-49
2021/04/08 04:57:07;;;;;;;2.08;0.90;;;;;;;;;;5087197;28;20663;-50
2021/04/08 04:59:33;;;;;;;1.60;0.80;;;;;;;;;;5093073;28;20189;-48
2021/04/08 05:01:59;;;;;;;3.05;1.30;;;;;;;;;;5078981;28;20476;-48
2021/04/08 05:04:25;;;;;;;7.63;1.65;;;;;;;;;;5089028;28;20465;-56
2021/04/08 05:06:51;;;;;;;1.73;0.93;;;;;;;;;;5093986;28;20181;-48
2021/04/08 05:09:17;;;;;;;1.67;1.05;;;;;;;;;;5093913;28;20246;-58
2021/04/08 05:11:43;;;;;;;5.75;1.20;;;;;;;;;;5093721;28;20188;-51
2021/04/08 05:14:10;;;;;;;3.05;1.15;;;;;;;;;;5089447;28;20209;-48
2021/04/08 05:16:36;;;;;;;1.08;0.98;;;;;;;;;;5092384;28;20576;-48
2021/04/08 05:19:02;;;;;;;2.15;1.00;;;;;;;;;;5090477;28;20173;-49
2021/04/08 05:21:28;;;;;;;2.00;0.98;;;;;;;;;;5093430;28;20273;-48
2021/04/08 05:23:54;;;;;;;4.63;1.10;;;;;;;;;;5082178;28;20173;-47
2021/04/08 05:26:20;;;;;;;2.10;1.00;;;;;;;;;;5092509;28;20485;-48
2021/04/08 05:28:46;;;;;;;1.77;1.05;;;;;;;;;;5093986;28;20192;-48
2021/04/08 05:31:12;;;;;;;3.05;0.82;;;;;;;;;;5093848;28;20447;-48
2021/04/08 05:33:38;;;;;;;2.97;0.82;;;;;;;;;;5093862;28;20182;-48
2021/04/08 05:36:05;;;;;;;4.68;0.85;;;;;;;;;;5092739;28;20216;-47
2021/04/08 05:38:31;;;;;;;1.83;0.90;;;;;;;;;;5094496;28;20576;-48
2021/04/08 05:40:57;;;;;;;1.30;0.90;;;;;;;;;;5097466;28;20219;-47
2021/04/08 05:43:23;;;;;;;1.20;0.90;;;;;;;;;;5089552;28;20201;-48
2021/04/08 05:45:49;;;;;;;3.13;1.10;;;;;;;;;;5096710;28;20222;-47
2021/04/08 05:48:15;;;;;;;2.72;1.08;;;;;;;;;;5090674;28;20381;-48
2021/04/08 05:50:41;;;;;;;2.13;1.10;;;;;;;;;;5096822;28;20178;-48
2021/04/08 05:53:08;;;;;;;1.52;1.10;;;;;;;;;;5097663;28;20173;-47
2021/04/08 05:55:34;;;;;;;2.53;1.00;;;;;;;;;;5097121;28;20185;-49
2021/04/08 05:58:00;;;;;;;2.58;1.10;;;;;;;;;;5094157;28;20217;-48
2021/04/08 06:00:26;;;;;;;1.88;1.13;;;;;;;;;;5085816;28;20174;-48
2021/04/08 06:02:54;;;;;;;3.13;1.23;;;;;;;;;;5097434;28;20170;-47
2021/04/08 06:05:20;;;;;;;3.47;0.98;;;;;;;;;;5097155;28;20571;-48
2021/04/08 06:07:46;;;;;;;2.58;1.23;;;;;;;;;;5096605;28;20247;-47
2021/04/08 06:10:12;;;;;;;3.65;1.33;;;;;;;;;;5077230;28;20179;-47
2021/04/08 06:12:44;;;;;;;4.65;1.40;;;;;;;;;;5080983;28;20173;-47
2021/04/08 06:15:11;;;;;;;3.92;1.63;;;;;;;;;;5096652;28;20434;-47
2021/04/08 06:17:37;;;;;;;3.20;1.60;;;;;;;;;;5097183;28;20224;-47
2021/04/08 06:20:04;;;;;;;3.72;1.75;;;;;;;;;;5096956;28;20186;-48
2021/04/08 06:22:30;;;;;;;4.00;1.73;;;;;;;;;;5097184;28;20170;-47
2021/04/08 06:24:56;;;;;;;4.60;1.75;;;;;;;;;;5096751;28;20242;-47
2021/04/08 06:27:22;;;;;;;4.32;1.83;;;;;;;;;;5077902;28;20196;-47
2021/04/08 06:29:48;;;;;;;5.50;1.80;;;;;;;;;;5079903;28;20190;-48
2021/04/08 06:32:14;;;;;;;6.20;2.05;;;;;;;;;;5083681;28;20196;-47
2021/04/08 06:34:40;;;;;;;5.63;1.90;;;;;;;;;;5089680;28;20183;-50
2021/04/08 06:37:07;;;;;;;5.65;2.28;;;;;;;;;;5076653;28;20194;-49
2021/04/08 06:39:35;;;;;;;3.95;1.90;;;;;;;;;;5086818;28;20549;-48
2021/04/08 06:42:01;;;;;;;5.40;2.00;;;;;;;;;;5085468;28;20180;-49
2021/04/08 06:44:28;;;;;;;8.88;2.55;;;;;;;;;;5096560;28;20216;-48
2021/04/08 06:46:58;;;;;;;6.18;2.13;;;;;;;;;;5096875;28;20185;-48
2021/04/08 06:49:30;;;;;;;6.72;2.33;;;;;;;;;;5090158;28;20189;-50
2021/04/08 06:51:57;;;;;;;11.10;2.55;;;;;;;;;;5095963;28;20186;-52
2021/04/08 06:54:24;;;;;;;6.82;2.10;;;;;;;;;;5093251;28;20401;-50
2021/04/08 06:56:51;;;;;;;7.43;2.22;;;;;;;;;;5094677;28;20693;-47
2021/04/08 06:59:17;;;;;;;7.85;2.70;;;;;;;;;;5095895;28;20177;-48
2021/04/08 07:01:44;;;;;;;5.93;2.20;;;;;;;;;;5096298;28;20331;-47
2021/04/08 07:04:11;;;;;;;8.00;1.90;;;;;;;;;;5095521;28;20174;-48
2021/04/08 07:07:47;;;;;;;4.75;2.05;;;;;;;;;;5166893;27;20474;-47
2021/04/08 07:10:13;;;;;;;6.47;2.08;;;;;;;;;;5143950;27;20206;-47
2021/04/08 07:12:39;;;;;;;5.18;2.05;;;;;;;;;;5151432;27;20554;-47
2021/04/08 07:15:07;;;;;;;6.45;2.30;;;;;;;;;;5152613;27;20225;-47
2021/04/08 07:17:33;;;;;;;5.40;2.08;;;;;;;;;;5152089;27;20187;-47
2021/04/08 07:20:00;;;;;;;3.78;2.00;;;;;;;;;;5152166;27;20275;-47
2021/04/08 07:22:26;;;;;;;7.60;2.22;;;;;;;;;;5152902;27;20251;-51
2021/04/08 07:24:53;;;;;;;5.53;2.33;;;;;;;;;;5151974;27;20575;-47
2021/04/08 07:27:23;;;;;;;5.68;1.92;;;;;;;;;;5152320;27;20586;-48
2021/04/08 07:29:52;;;;;;;5.85;2.03;;;;;;;;;;5152994;27;20220;-48
2021/04/08 07:32:29;;;;;;;7.60;1.60;;;;;;;;;;5152605;27;20200;-48
2021/04/08 07:35:02;;;;;;;5.05;1.80;;;;;;;;;;5151981;27;20290;-53
2021/04/08 07:37:32;;;;;;;6.20;2.20;;;;;;;;;;5150682;27;20192;-47
2021/04/08 07:40:01;;;;;;;4.68;1.52;;;;;;;;;;5152489;27;20442;-51
2021/04/08 07:42:31;;;;;;;7.00;1.77;;;;;;;;;;5152649;27;20438;-49
2021/04/08 07:45:01;;;;;;;4.50;1.67;;;;;;;;;;5151977;27;20233;-50
2021/04/08 07:47:31;;;;;;;7.40;1.80;;;;;;;;;;5152643;27;20528;-52
2021/04/08 07:50:11;;;;;;;5.80;1.88;;;;;;;;;;5152219;27;20251;-48
2021/04/08 07:52:41;;;;;;;4.82;1.52;;;;;;;;;;5153043;27;20213;-50
2021/04/08 07:55:19;;;;;;;4.55;1.63;;;;;;;;;;5149280;27;20574;-49
2021/04/08 07:58:04;;;;;;;4.53;1.75;;;;;;;;;;5151708;27;20206;-47
2021/04/08 08:00:31;;;;;;;4.05;1.58;;;;;;;;;;5152097;27;20180;-47
2021/04/08 08:02:59;;;;;;;8.88;1.67;;;;;;;;;;5152419;27;20168;-47
2021/04/08 08:05:26;;;;;;;8.38;1.58;;;;;;;;;;5151738;27;20160;-47
2021/04/08 08:07:53;;;;;;;5.15;1.52;;;;;;;;;;5152547;27;20255;-47
2021/04/08 08:10:24;;;;;;;6.10;1.42;;;;;;;;;;5136585;27;20192;-47
2021/04/08 08:12:51;;;;;;;2.95;1.60;;;;;;;;;;5140521;27;20179;-46
2021/04/08 08:15:19;;;;;;;7.45;1.58;;;;;;;;;;5150105;27;20611;-46
2021/04/08 08:17:45;;;;;;;10.05;2.13;;;;;;;;;;5139753;27;20185;-47
2021/04/08 08:20:12;;;;;;;4.57;1.63;;;;;;;;;;5119238;27;20177;-46
2021/04/08 08:22:39;;;;;;;4.38;1.60;;;;;;;;;;5119167;27;20173;-48
2021/04/08 08:25:05;;;;;;;3.58;1.55;;;;;;;;;;5136389;27;20207;-47
2021/04/08 08:27:43;;;;;;;4.47;1.38;;;;;;;;;;5138163;27;20211;-47
2021/04/08 08:30:14;;;;;;;5.05;1.80;;;;;;;;;;5124344;27;20177;-49
2021/04/08 08:33:00;;;;;;;4.97;1.83;;;;;;;;;;5117913;28;20540;-48
2021/04/08 08:35:27;;;;;;;5.18;1.40;;;;;;;;;;5127962;27;20233;-47
2021/04/08 08:37:54;;;;;;;5.63;1.42;;;;;;;;;;5119125;27;20177;-48
2021/04/08 08:40:21;;;;;;;292.08;121.70;;;;;;;;;;5118690;27;20180;-47
2021/04/08 08:42:48;;;;;;;411.17;175.98;;;;;;;;;;5117619;28;20166;-48
2021/04/08 08:45:14;;;;;;;421.13;184.88;;;;;;;;;;5125971;27;20233;-47
2021/04/08 08:47:40;;;;;;;484.77;227.13;;;;;;;;;;5123786;27;20223;-46
2021/04/08 08:50:11;;;;;;;486.48;232.20;;;;;;;;;;5119226;27;20529;-46
2021/04/08 08:52:38;;;;;;;508.30;246.18;;;;;;;;;;5107632;27;20177;-47
2021/04/08 08:55:14;;;;;;;640.90;328.83;;;;;;;;;;5134240;27;20168;-48
2021/04/08 08:57:40;;;;;;;540.80;267.92;;;;;;;;;;5125474;27;20187;-47
2021/04/08 09:00:07;;;;;;;456.25;211.57;;;;;;;;;;5127907;27;20580;-53
2021/04/08 09:02:35;;;;;;;361.55;149.43;;;;;;;;;;5120236;27;20181;-48
2021/04/08 09:05:02;;;;;;;344.25;143.18;;;;;;;;;;5115972;28;20188;-47
2021/04/08 09:07:29;;;;;;;271.30;119.80;;;;;;;;;;5116511;27;20212;-48
2021/04/08 09:10:00;;;;;;;246.68;102.38;;;;;;;;;;5137955;27;20469;-49
2021/04/08 09:12:27;;;;;;;184.23;79.18;;;;;;;;;;5133428;27;20552;-58
2021/04/08 09:14:54;;;;;;;162.43;71.05;;;;;;;;;;5131591;27;20169;-50
2021/04/08 09:17:40;;;;;;;144.43;60.15;;;;;;;;;;5120541;27;20550;-53
2021/04/08 09:20:07;;;;;;;128.88;54.40;;;;;;;;;;5136635;27;20168;-51
2021/04/08 09:22:33;;;;;;;107.07;47.95;;;;;;;;;;5135356;27;20298;-49
2021/04/08 09:25:00;;;;;;;93.95;41.30;;;;;;;;;;5136894;27;20168;-52
2021/04/08 09:27:27;;;;;;;88.85;41.17;;;;;;;;;;5131434;27;20571;-50
2021/04/08 09:29:58;;;;;;;78.50;36.67;;;;;;;;;;5115304;28;20174;-48
2021/04/08 09:32:24;;;;;;;72.03;35.60;;;;;;;;;;5116734;28;20169;-48
2021/04/08 09:35:08;;;;;;;72.13;34.83;;;;;;;;;;5119701;27;20204;-48
2021/04/08 09:37:47;;;;;;;63.25;32.15;;;;;;;;;;5132292;27;20181;-48
2021/04/08 09:40:22;;;;;;;62.70;27.17;;;;;;;;;;5116919;28;20168;-49
2021/04/08 09:43:00;;;;;;;64.75;25.95;;;;;;;;;;5123247;27;20220;-47
2021/04/08 09:45:26;;;;;;;61.95;28.20;;;;;;;;;;5135924;27;20228;-48
2021/04/08 09:48:11;;;;;;;57.13;25.17;;;;;;;;;;5131032;27;20554;-49
2021/04/08 09:50:44;;;;;;;53.30;24.88;;;;;;;;;;5129534;27;20611;-51
2021/04/08 09:53:10;;;;;;;53.55;25.42;;;;;;;;;;5104342;28;20297;-49
2021/04/08 09:55:37;;;;;;;55.58;24.60;;;;;;;;;;5122815;27;20194;-48
2021/04/08 09:58:04;;;;;;;48.17;21.50;;;;;;;;;;5125010;27;20237;-49
2021/04/08 10:00:30;;;;;;;42.60;20.15;;;;;;;;;;5119583;27;20177;-50
2021/04/08 10:03:05;;;;;;;41.85;20.65;;;;;;;;;;5130719;27;20204;-49
2021/04/08 10:05:32;;;;;;;39.95;20.55;;;;;;;;;;5135585;27;20172;-51
2021/04/08 10:07:59;;;;;;;37.90;16.98;;;;;;;;;;5134758;27;20498;-48
2021/04/08 10:10:38;;;;;;;33.75;16.08;;;;;;;;;;5117497;27;20229;-48
2021/04/08 10:13:24;;;;;;;33.83;15.65;;;;;;;;;;5118048;27;20169;-50
2021/04/08 10:15:52;;;;;;;34.58;15.85;;;;;;;;;;5115553;28;20181;-56
2021/04/08 10:18:21;;;;;;;29.42;13.65;;;;;;;;;;5111518;28;20572;-50
2021/04/08 10:20:49;;;;;;;33.33;13.68;;;;;;;;;;5103800;28;20173;-53
2021/04/08 10:23:28;;;;;;;27.95;12.73;;;;;;;;;;5115651;27;20208;-50
2021/04/08 10:25:59;;;;;;;28.05;11.95;;;;;;;;;;5123592;27;20193;-49
2021/04/08 10:28:26;;;;;;;24.08;12.20;;;;;;;;;;5120113;27;20212;-48
2021/04/08 10:30:52;;;;;;;34.45;12.57;;;;;;;;;;5115780;28;20188;-48
2021/04/08 10:33:19;;;;;;;29.52;11.30;;;;;;;;;;5115165;27;20444;-46
2021/04/08 10:35:45;;;;;;;31.77;12.40;;;;;;;;;;5117617;27;20276;-46
2021/04/08 10:38:11;;;;;;;27.00;12.35;;;;;;;;;;5125338;27;20173;-46
2021/04/08 10:40:38;;;;;;;24.98;11.48;;;;;;;;;;5134768;27;20186;-46
2021/04/08 10:43:11;;;;;;;29.67;11.65;;;;;;;;;;5126182;27;20192;-46
2021/04/08 10:45:38;;;;;;;25.63;12.57;;;;;;;;;;5114857;28;20180;-46
2021/04/08 10:48:06;;;;;;;24.50;11.40;;;;;;;;;;5115325;28;20191;-50
2021/04/08 10:50:32;;;;;;;19.13;7.88;;;;;;;;;;5115354;28;20169;-48
2021/04/08 10:52:59;;;;;;;17.05;8.35;;;;;;;;;;5124778;27;20176;-48
2021/04/08 10:55:26;;;;;;;15.93;6.90;;;;;;;;;;5135034;27;20164;-49
2021/04/08 10:57:52;;;;;;;14.68;6.80;;;;;;;;;;5127906;27;20169;-49
2021/04/08 11:00:18;;;;;;;17.70;6.75;;;;;;;;;;5114806;28;20181;-50
2021/04/08 11:02:45;;;;;;;13.63;5.90;;;;;;;;;;5114435;28;20229;-48
2021/04/08 11:05:22;;;;;;;11.57;5.75;;;;;;;;;;5113933;28;20165;-49
2021/04/08 11:07:51;;;;;;;11.32;5.18;;;;;;;;;;5114221;28;20230;-48
2021/04/08 11:10:18;;;;;;;12.68;5.78;;;;;;;;;;5114805;28;20150;-59
2021/04/08 11:12:47;;;;;;;12.43;5.57;;;;;;;;;;5119154;28;20308;-48
2021/04/08 11:15:13;;;;;;;15.05;5.35;;;;;;;;;;5113466;28;20169;-49
2021/04/08 11:17:42;;;;;;;16.83;5.50;;;;;;;;;;5131440;28;20188;-49
2021/04/08 11:20:08;;;;;;;11.90;5.18;;;;;;;;;;5134350;28;20169;-50
2021/04/08 11:22:36;;;;;;;10.18;4.85;;;;;;;;;;5135175;28;20229;-48
2021/04/08 11:25:07;;;;;;;18.67;5.22;;;;;;;;;;5134516;28;20168;-50
2021/04/08 11:27:39;;;;;;;9.38;4.20;;;;;;;;;;5135339;28;20241;-47
2021/04/08 11:30:06;;;;;;;13.75;5.60;;;;;;;;;;5135330;28;20260;-48
2021/04/08 11:32:42;;;;;;;11.25;5.25;;;;;;;;;;5135379;28;20243;-46
2021/04/08 11:35:08;;;;;;;10.05;4.63;;;;;;;;;;5124022;28;20450;-45
2021/04/08 11:37:36;;;;;;;10.63;4.85;;;;;;;;;;5096936;28;20188;-49
2021/04/08 11:40:03;;;;;;;10.02;5.30;;;;;;;;;;5114832;28;20177;-49
2021/04/08 11:42:41;;;;;;;10.38;4.85;;;;;;;;;;5114813;28;20269;-49
2021/04/08 11:45:21;;;;;;;11.25;5.10;;;;;;;;;;5114283;28;20485;-49
2021/04/08 11:48:04;;;;;;;9.88;4.88;;;;;;;;;;5114531;28;20987;-50
2021/04/08 11:50:37;;;;;;;11.48;5.15;;;;;;;;;;5114650;28;20177;-49
2021/04/08 11:53:10;;;;;;;12.18;4.90;;;;;;;;;;5116523;27;20176;-49
2021/04/08 11:55:36;;;;;;;9.27;4.90;;;;;;;;;;5128975;27;20180;-47
2021/04/08 11:58:02;;;;;;;11.85;4.55;;;;;;;;;;5119546;27;20181;-47
2021/04/08 12:00:29;;;;;;;12.77;4.70;;;;;;;;;;5124180;27;20170;-48
2021/04/08 12:02:55;;;;;;;10.45;4.75;;;;;;;;;;5123953;27;20201;-47
2021/04/08 12:05:21;;;;;;;11.10;4.38;;;;;;;;;;5138349;27;20180;-47
2021/04/08 12:07:49;;;;;;;8.82;4.05;;;;;;;;;;5123381;27;20219;-47
2021/04/08 12:10:25;;;;;;;8.07;4.10;;;;;;;;;;5138268;27;20637;-48
2021/04/08 12:12:57;;;;;;;6.45;3.90;;;;;;;;;;5131753;27;20181;-48
2021/04/08 12:15:32;;;;;;;9.13;4.53;;;;;;;;;;5119631;27;20205;-48
2021/04/08 12:17:59;;;;;;;7.82;3.90;;;;;;;;;;5125776;27;20407;-52
2021/04/08 12:20:25;;;;;;;7.93;3.80;;;;;;;;;;5117441;28;20204;-48
2021/04/08 12:22:54;;;;;;;6.80;3.50;;;;;;;;;;5117987;28;20165;-50
2021/04/08 12:25:21;;;;;;;7.43;4.00;;;;;;;;;;5117662;28;20616;-48
2021/04/08 12:27:49;;;;;;;7.60;3.90;;;;;;;;;;5122629;27;20283;-47
2021/04/08 12:33:18;;;;;;;7.55;3.60;;;;;;;;;;5114124;27;20236;-48
2021/04/08 12:35:45;;;;;;;5.60;3.25;;;;;;;;;;5110829;28;20173;-48
2021/04/08 12:38:11;;;;;;;6.50;3.17;;;;;;;;;;5117790;28;20224;-48
2021/04/08 12:40:38;;;;;;;7.88;3.58;;;;;;;;;;5116934;28;20563;-47
2021/04/08 12:43:04;;;;;;;9.65;3.70;;;;;;;;;;5112841;27;20256;-49
2021/04/08 12:45:31;;;;;;;8.77;4.10;;;;;;;;;;5128240;27;20259;-48
2021/04/08 12:47:57;;;;;;;5.32;3.65;;;;;;;;;;5121623;27;20173;-47
2021/04/08 12:50:23;;;;;;;9.23;3.65;;;;;;;;;;5119224;27;20169;-47
2021/04/08 12:52:49;;;;;;;6.63;3.63;;;;;;;;;;5137664;27;20260;-47
2021/04/08 12:55:16;;;;;;;6.35;3.40;;;;;;;;;;5119614;27;20263;-47
2021/04/08 12:57:42;;;;;;;8.32;3.63;;;;;;;;;;5134061;27;20567;-48
2021/04/08 13:00:09;;;;;;;6.75;3.63;;;;;;;;;;5106013;27;20577;-48
2021/04/08 13:02:35;;;;;;;5.68;3.47;;;;;;;;;;5109833;28;20193;-48
2021/04/08 13:05:01;;;;;;;8.18;3.40;;;;;;;;;;5107922;27;20188;-47
2021/04/08 13:07:27;;;;;;;10.60;3.10;;;;;;;;;;5137799;27;20200;-49
2021/04/08 13:09:53;;;;;;;8.52;3.38;;;;;;;;;;5122566;27;20185;-48
2021/04/08 13:12:19;;;;;;;8.20;4.82;;;;;;;;;;5118424;27;20624;-49
2021/04/08 13:14:45;;;;;;;9.90;5.47;;;;;;;;;;5130302;27;20244;-48
2021/04/08 13:17:12;;;;;;;13.02;7.15;;;;;;;;;;5119634;27;20173;-47
2021/04/08 13:19:38;;;;;;;9.18;6.07;;;;;;;;;;5116122;28;20567;-48
2021/04/08 13:22:05;;;;;;;9.52;6.13;;;;;;;;;;5115207;28;20201;-50
2021/04/08 13:24:32;;;;;;;14.15;6.55;;;;;;;;;;5114542;27;20196;-48
2021/04/08 13:27:00;;;;;;;12.73;7.57;;;;;;;;;;5120841;27;20291;-49
2021/04/08 13:29:26;;;;;;;13.13;7.05;;;;;;;;;;5137805;27;20446;-49
2021/04/08 13:31:52;;;;;;;14.38;6.30;;;;;;;;;;5119012;27;20184;-49
2021/04/08 13:34:18;;;;;;;12.43;6.85;;;;;;;;;;5131951;27;20187;-47
2021/04/08 13:36:44;;;;;;;10.68;5.85;;;;;;;;;;5129567;27;20183;-48
2021/04/08 13:39:10;;;;;;;9.73;5.13;;;;;;;;;;5131698;27;20471;-48
2021/04/08 13:41:36;;;;;;;7.40;5.30;;;;;;;;;;5115997;27;20188;-48
2021/04/08 13:44:02;;;;;;;13.98;5.55;;;;;;;;;;5127727;27;20559;-48
2021/04/08 13:46:28;;;;;;;11.43;5.90;;;;;;;;;;5116600;27;20197;-48
2021/04/08 13:48:54;;;;;;;9.40;5.20;;;;;;;;;;5115912;28;20177;-49
2021/04/08 13:51:20;;;;;;;8.10;4.85;;;;;;;;;;5120663;27;20571;-49
2021/04/08 13:53:46;;;;;;;8.90;5.15;;;;;;;;;;5124967;27;20197;-49
2021/04/08 13:56:12;;;;;;;6.93;4.65;;;;;;;;;;5116403;28;20165;-46
2021/04/08 13:58:39;;;;;;;8.55;4.45;;;;;;;;;;5116452;27;20177;-53
2021/04/08 14:01:05;;;;;;;8.73;4.53;;;;;;;;;;5115630;28;20567;-49
2021/04/08 14:03:31;;;;;;;6.50;4.32;;;;;;;;;;5116127;28;20212;-47
2021/04/08 14:05:57;;;;;;;8.02;4.40;;;;;;;;;;5127809;27;20211;-48
2021/04/08 14:08:24;;;;;;;6.00;4.13;;;;;;;;;;5115860;28;20611;-48
2021/04/08 14:10:50;;;;;;;7.47;4.18;;;;;;;;;;5115303;28;20169;-51
2021/04/08 14:13:16;;;;;;;6.10;4.47;;;;;;;;;;5115771;28;20177;-48
2021/04/08 14:15:43;;;;;;;6.55;4.00;;;;;;;;;;5115594;28;20478;-47
2021/04/08 14:18:09;;;;;;;5.28;3.53;;;;;;;;;;5115829;28;20169;-49
2021/04/08 14:20:35;;;;;;;6.40;3.70;;;;;;;;;;5116252;27;20266;-47
2021/04/08 14:23:03;;;;;;;5.22;3.72;;;;;;;;;;5127014;27;20200;-48
2021/04/08 14:25:29;;;;;;;4.78;3.63;;;;;;;;;;5116081;28;20556;-48
2021/04/08 14:27:55;;;;;;;6.70;3.97;;;;;;;;;;5116382;27;20216;-51
2021/04/08 14:30:21;;;;;;;6.97;3.90;;;;;;;;;;5115457;28;20173;-49
2021/04/08 14:32:47;;;;;;;6.82;3.78;;;;;;;;;;5115744;28;20547;-49
2021/04/08 14:35:14;;;;;;;4.63;3.40;;;;;;;;;;5115924;27;20165;-50
2021/04/08 14:37:40;;;;;;;5.40;3.25;;;;;;;;;;5112282;28;20184;-49
2021/04/08 14:40:07;;;;;;;7.88;3.08;;;;;;;;;;5115589;28;20173;-49
2021/04/08 14:42:33;;;;;;;9.52;3.35;;;;;;;;;;5114928;28;20161;-49
2021/04/08 14:44:59;;;;;;;7.93;3.25;;;;;;;;;;5115501;28;20478;-50